createdAt,value
2022-12-06T00:01:51.709Z,4.40
2022-12-06T00:11:54.190Z,4.40
2022-12-06T00:21:56.119Z,4.30
2022-12-06T00:31:57.988Z,4.30
2022-12-06T00:41:59.925Z,4.20
2022-12-06T00:52:01.758Z,4.30
2022-12-06T01:02:03.616Z,4.30
2022-12-06T01:12:05.602Z,4.40
2022-12-06T01:22:07.413Z,4.40
2022-12-06T01:32:09.512Z,4.50
2022-12-06T01:42:15.488Z,4.50
2022-12-06T01:52:18.810Z,4.50
2022-12-06T02:02:20.967Z,4.50
2022-12-06T02:12:22.942Z,4.50
2022-12-06T02:22:50.220Z,4.50
2022-12-06T02:32:59.859Z,4.50
2022-12-06T02:43:11.070Z,4.50
2022-12-06T02:53:17.845Z,4.50
2022-12-06T03:03:59.616Z,4.50
2022-12-06T03:14:13.383Z,4.60
2022-12-06T03:24:17.324Z,4.70
2022-12-06T03:34:25.569Z,4.70
2022-12-06T03:44:27.403Z,4.60
2022-12-06T03:54:29.406Z,4.70
2022-12-06T04:04:31.286Z,4.70
2022-12-06T04:14:33.137Z,4.60
2022-12-06T04:24:34.990Z,4.60
2022-12-06T04:34:36.839Z,4.60
2022-12-06T04:44:39.390Z,4.60
2022-12-06T04:54:41.349Z,4.60
2022-12-06T05:04:43.429Z,4.60
2022-12-06T05:14:45.295Z,4.70
2022-12-06T05:24:47.139Z,4.70
2022-12-06T05:34:49.122Z,4.70
2022-12-06T05:44:50.936Z,4.60
2022-12-06T05:54:52.695Z,4.50
2022-12-06T06:04:54.506Z,4.50
2022-12-06T06:14:56.394Z,4.50
2022-12-06T06:24:58.439Z,4.60
2022-12-06T06:35:00.438Z,4.50
2022-12-06T06:45:03.988Z,4.60
2022-12-06T06:55:06.575Z,4.60
2022-12-06T07:05:08.501Z,4.60
2022-12-06T07:15:10.967Z,4.60
2022-12-06T07:25:12.840Z,4.70
2022-12-06T07:35:14.744Z,4.70
2022-12-06T07:45:16.668Z,4.70
2022-12-06T07:55:19.146Z,4.80
2022-12-06T08:05:20.921Z,4.90
2022-12-06T08:15:22.787Z,4.90
2022-12-06T08:25:24.789Z,4.90
2022-12-06T08:35:26.655Z,4.90
2022-12-06T08:45:28.511Z,5.00
2022-12-06T08:55:30.333Z,5.00
2022-12-06T09:05:35.057Z,5.00
2022-12-06T09:15:38.499Z,5.00
2022-12-06T09:25:43.542Z,4.90
2022-12-06T09:35:45.495Z,4.70
2022-12-06T09:45:52.874Z,4.50
2022-12-06T09:56:20.437Z,4.40
2022-12-06T10:06:24.890Z,4.40
2022-12-06T10:16:33.206Z,4.30
2022-12-06T10:26:51.412Z,4.20
2022-12-06T10:37:17.258Z,4.10
2022-12-06T10:47:30.409Z,4.10
2022-12-06T10:57:36.890Z,4.20
2022-12-06T11:07:43.373Z,4.20
2022-12-06T11:17:49.165Z,4.20
2022-12-06T11:28:09.061Z,4.20
2022-12-06T11:38:12.742Z,4.40
2022-12-06T11:48:18.985Z,4.40
2022-12-06T11:58:40.247Z,4.30
2022-12-06T12:08:52.184Z,4.30
2022-12-06T12:18:55.916Z,4.10
2022-12-06T12:29:18.592Z,4.10
2022-12-06T12:39:37.281Z,4.10
2022-12-06T12:49:39.147Z,4.20
2022-12-06T12:59:41.813Z,4.30
2022-12-06T13:10:07.220Z,4.30
2022-12-06T13:20:27.456Z,4.20
2022-12-06T13:30:31.299Z,3.90
2022-12-06T13:40:33.257Z,3.80
2022-12-06T13:50:35.006Z,3.70
2022-12-06T14:00:42.635Z,3.60
2022-12-06T14:10:44.796Z,3.60
2022-12-06T14:20:49.263Z,3.60
2022-12-06T14:31:03.666Z,3.60
2022-12-06T14:41:05.672Z,3.50
2022-12-06T14:51:38.292Z,3.40
2022-12-06T15:01:49.787Z,3.40
2022-12-06T15:11:52.160Z,3.10
2022-12-06T15:21:54.819Z,3.10
2022-12-06T15:31:56.706Z,3.00
2022-12-06T15:41:58.966Z,3.00
2022-12-06T15:52:00.861Z,2.90
2022-12-06T16:02:02.768Z,3.00
2022-12-06T16:12:04.914Z,2.90
2022-12-06T16:22:08.237Z,2.80
2022-12-06T16:32:10.096Z,2.80
2022-12-06T16:42:12.713Z,2.70
2022-12-06T16:52:15.305Z,2.70
2022-12-06T17:02:26.843Z,2.60
2022-12-06T17:12:28.863Z,2.50
2022-12-06T17:22:30.675Z,2.40
2022-12-06T17:32:32.590Z,2.30
2022-12-06T17:42:34.466Z,2.30
2022-12-06T17:52:36.340Z,2.00
2022-12-06T18:02:38.165Z,2.00
2022-12-06T18:12:40.063Z,1.80
2022-12-06T18:22:43.568Z,1.60
2022-12-06T18:32:45.417Z,1.60
2022-12-06T18:42:47.299Z,1.60
2022-12-06T18:52:49.169Z,1.60
2022-12-06T19:02:51.096Z,1.60
2022-12-06T19:12:53.081Z,1.60
2022-12-06T19:22:54.942Z,1.70
2022-12-06T19:32:56.781Z,1.60
2022-12-06T19:42:58.581Z,1.70
2022-12-06T19:53:00.342Z,1.80
2022-12-06T20:03:02.213Z,1.70
2022-12-06T20:13:04.407Z,1.70
2022-12-06T20:23:10.487Z,1.80
2022-12-06T20:33:13.020Z,1.80
2022-12-06T20:43:15.264Z,1.80
2022-12-06T20:53:17.125Z,1.70
2022-12-06T21:03:19.088Z,1.70
2022-12-06T21:13:21.346Z,1.70
2022-12-06T21:23:23.462Z,1.80
2022-12-06T21:33:26.326Z,1.80
2022-12-06T21:43:28.247Z,1.80
2022-12-06T21:53:30.300Z,1.80
2022-12-06T22:03:32.162Z,1.80
2022-12-06T22:13:34.279Z,1.80
2022-12-06T22:23:36.189Z,1.80
2022-12-06T22:33:38.259Z,1.70
2022-12-06T22:43:40.168Z,1.80
2022-12-06T22:53:44.634Z,1.80
2022-12-06T23:03:48.477Z,1.80
2022-12-06T23:13:50.519Z,1.70
2022-12-06T23:23:58.276Z,1.70
2022-12-06T23:34:06.812Z,1.80
2022-12-06T23:44:10.843Z,1.80
2022-12-06T23:54:15.229Z,1.90
